Time;durP1;ratioP1;P1;durP2;ratioP2;P2;SDS_P1;SDS_P2;PMS_P1;PMS_P2;Temp;Humidity;BMP_temperature;BMP_pressure;BME280_temperature;BME280_humidity;BME280_pressure;Samples;Min_cycle;Max_cycle;Signal;HPM_P1;HPM_P2
2023/02/19 00:01:28;;;;;;;;;;;;;;;18.92;36.91;100646.55;106152;1282;62114;-81
2023/02/19 00:03:55;;;;;;;;;;;;;;;18.92;36.88;100646.17;106304;1283;60778;-81
2023/02/19 00:06:20;;;;;;;;;;;;;;;18.92;37.08;100635.64;106018;1283;62082;-81
2023/02/19 00:08:47;;;;;;;;;;;;;;;18.91;37.05;100636.23;106040;1283;62267;-81
2023/02/19 00:11:14;;;;;;;;;;;;;;;18.91;36.86;100643.16;106153;1288;62059;-81
2023/02/19 00:13:41;;;;;;;;;;;;;;;18.91;36.96;100642.98;106168;1283;60839;-81
2023/02/19 00:16:07;;;;;;;;;;;;;;;18.91;36.96;100638.92;106175;1283;62076;-81
2023/02/19 00:18:32;;;;;;;;;;;;;;;18.91;36.92;100643.01;106282;1286;62046;-81
2023/02/19 00:20:58;;;;;;;;;;;;;;;18.91;36.88;100654.25;106287;1285;62074;-81
2023/02/19 00:23:24;;;;;;;;;;;;;;;18.91;36.93;100647.48;106144;1282;76118;-81
2023/02/19 00:25:49;;;;;;;;;;;;;;;18.90;36.89;100642.52;106220;1283;62183;-81
2023/02/19 00:28:14;;;;;;;;;;;;;;;18.91;36.93;100639.82;106213;1283;62175;-81
2023/02/19 00:30:40;;;;;;;;;;;;;;;18.90;37.05;100643.80;106164;1288;62161;-81
2023/02/19 00:33:07;;;;;;;;;;;;;;;18.91;36.97;100642.15;106295;1283;62085;-82
2023/02/19 00:35:36;;;;;;;;;;;;;;;18.90;36.90;100641.99;106177;1283;74310;-81
2023/02/19 00:38:02;;;;;;;;;;;;;;;18.90;37.07;100634.33;106177;1287;62114;-81
2023/02/19 00:40:27;;;;;;;;;;;;;;;18.91;37.06;100631.61;106010;1283;62042;-81
2023/02/19 00:42:56;;;;;;;;;;;;;;;18.90;36.95;100633.67;106168;1288;62079;-81
2023/02/19 00:45:21;;;;;;;;;;;;;;;18.90;37.15;100634.02;105933;1285;75118;-81
2023/02/19 00:47:47;;;;;;;;;;;;;;;18.89;37.15;100632.98;105790;1286;62117;-81
2023/02/19 00:50:13;;;;;;;;;;;;;;;18.90;37.13;100630.63;105951;1286;62191;-81
2023/02/19 00:52:38;;;;;;;;;;;;;;;18.89;37.14;100623.69;105788;1285;62036;-81
2023/02/19 00:55:04;;;;;;;;;;;;;;;18.89;36.96;100621.77;105854;1286;62093;-81
2023/02/19 00:57:29;;;;;;;;;;;;;;;18.89;37.12;100618.92;105904;1286;74476;-81
2023/02/19 00:59:55;;;;;;;;;;;;;;;18.89;37.04;100621.59;105686;1289;62037;-81
2023/02/19 01:02:20;;;;;;;;;;;;;;;18.89;37.13;100623.54;105913;1286;62156;-81
2023/02/19 01:04:46;;;;;;;;;;;;;;;18.88;37.06;100620.36;105903;1285;62036;-81
2023/02/19 01:07:12;;;;;;;;;;;;;;;18.89;37.09;100620.35;105805;1285;62150;-81
2023/02/19 01:09:37;;;;;;;;;;;;;;;18.88;37.16;100620.18;105833;1286;62208;-81
2023/02/19 01:12:04;;;;;;;;;;;;;;;18.88;37.20;100617.69;105673;1286;62094;-81
2023/02/19 01:14:29;;;;;;;;;;;;;;;18.88;37.06;100609.86;105965;1285;62050;-81
2023/02/19 01:16:55;;;;;;;;;;;;;;;18.88;37.07;100605.23;105973;1282;62037;-81
2023/02/19 01:19:20;;;;;;;;;;;;;;;18.88;37.10;100600.94;106127;1283;62084;-81
2023/02/19 01:21:46;;;;;;;;;;;;;;;18.88;37.22;100596.33;106292;1283;62161;-81
2023/02/19 01:24:11;;;;;;;;;;;;;;;18.88;37.15;100591.14;106314;1283;62076;-81
2023/02/19 01:26:37;;;;;;;;;;;;;;;18.87;37.17;100587.44;106176;1282;61974;-81
2023/02/19 01:29:02;;;;;;;;;;;;;;;18.87;37.11;100582.25;106128;1283;62181;-81
2023/02/19 01:31:28;;;;;;;;;;;;;;;18.87;37.15;100578.88;106160;1288;62076;-81
2023/02/19 01:33:58;;;;;;;;;;;;;;;18.87;37.12;100572.30;106265;1283;62091;-81
2023/02/19 01:36:24;;;;;;;;;;;;;;;18.87;37.16;100574.43;106263;1282;62069;-81
2023/02/19 01:38:49;;;;;;;;;;;;;;;18.87;37.07;100583.36;106153;1283;62055;-81
2023/02/19 01:41:16;;;;;;;;;;;;;;;18.86;37.16;100575.89;106158;1282;62036;-81
2023/02/19 01:43:54;;;;;;;;;;;;;;;18.86;37.20;100572.14;106201;1288;61973;-81
2023/02/19 01:46:20;;;;;;;;;;;;;;;18.86;37.20;100566.99;106289;1283;62104;-81
2023/02/19 01:48:46;;;;;;;;;;;;;;;18.86;37.23;100573.23;106373;1283;60105;-81
2023/02/19 01:51:16;;;;;;;;;;;;;;;18.86;37.18;100576.28;106166;1282;62170;-81
2023/02/19 01:53:43;;;;;;;;;;;;;;;18.85;37.09;100577.02;106190;1283;62181;-81
2023/02/19 01:56:08;;;;;;;;;;;;;;;18.86;37.27;100571.46;106258;1283;62143;-81
2023/02/19 01:58:34;;;;;;;;;;;;;;;18.85;37.25;100562.41;106154;1283;62085;-81
2023/02/19 02:01:04;;;;;;;;;;;;;;;18.85;37.31;100559.02;106174;1282;62149;-82
2023/02/19 02:03:29;;;;;;;;;;;;;;;18.85;37.09;100557.45;106168;1285;61989;-81
2023/02/19 02:05:56;;;;;;;;;;;;;;;18.85;37.40;100556.01;106178;1282;62210;-81
2023/02/19 02:11:08;;;;;;;;;;;;;;;18.85;37.08;100546.23;106182;1282;76174;-81
2023/02/19 02:13:33;;;;;;;;;;;;;;;18.84;37.11;100542.30;106257;1282;62072;-81
2023/02/19 02:15:59;;;;;;;;;;;;;;;18.84;37.10;100535.73;106174;1283;62088;-81
2023/02/19 02:18:37;;;;;;;;;;;;;;;18.84;37.27;100534.30;106258;1283;62046;-81
2023/02/19 02:21:21;;;;;;;;;;;;;;;18.84;37.32;100549.64;106152;1287;74222;-81
2023/02/19 02:24:05;;;;;;;;;;;;;;;18.84;37.19;100557.15;106252;1283;61983;-81
2023/02/19 02:26:38;;;;;;;;;;;;;;;18.84;37.13;100565.17;106196;1283;61891;-81
2023/02/19 02:29:07;;;;;;;;;;;;;;;18.84;37.20;100561.45;106251;1283;73207;-81
2023/02/19 02:32:02;;;;;;;;;;;;;;;18.83;37.18;100557.70;106136;1283;75342;-81
2023/02/19 02:34:36;;;;;;;;;;;;;;;18.83;37.37;100562.52;105498;1288;62162;-81
2023/02/19 02:37:02;;;;;;;;;;;;;;;18.83;37.14;100557.89;105540;1289;62240;-81
2023/02/19 02:39:28;;;;;;;;;;;;;;;18.83;37.31;100557.53;105393;1288;62238;-81
2023/02/19 02:45:33;;;;;;;;;;;;;;;18.83;37.35;100574.49;105589;1289;62125;-81
2023/02/19 02:47:44;;;;;;;;;;;;;;;18.83;37.31;100573.60;105511;1288;62252;-81
2023/02/19 02:50:15;;;;;;;;;;;;;;;18.83;37.37;100585.36;105491;1289;73597;-81
2023/02/19 02:55:25;;;;;;;;;;;;;;;18.83;37.31;100590.17;105631;1288;60821;-81
2023/02/19 02:57:51;;;;;;;;;;;;;;;18.83;37.34;100595.39;105494;1288;62094;-82
2023/02/19 03:00:16;;;;;;;;;;;;;;;18.83;37.36;100597.86;105537;1289;62200;-81
2023/02/19 03:02:42;;;;;;;;;;;;;;;18.83;37.41;100594.85;105589;1288;62060;-81
2023/02/19 03:05:52;;;;;;;;;;;;;;;18.82;37.34;100596.67;105530;1288;62085;-81
2023/02/19 03:08:56;;;;;;;;;;;;;;;18.82;37.41;100597.73;105621;1288;61976;-81
2023/02/19 03:19:40;;;;;;;;;;;;;;;18.82;37.30;100579.40;105506;1287;63666;-81
2023/02/19 03:22:08;;;;;;;;;;;;;;;18.82;37.34;100578.88;105494;1289;62019;-81
2023/02/19 03:27:19;;;;;;;;;;;;;;;18.81;37.41;100578.02;105543;1287;75218;-81
2023/02/19 03:29:45;;;;;;;;;;;;;;;18.81;37.46;100581.23;105532;1288;62081;-81
2023/02/19 03:32:23;;;;;;;;;;;;;;;18.81;37.50;100584.09;105488;1289;62269;-81
2023/02/19 03:34:59;;;;;;;;;;;;;;;18.80;37.46;100591.07;105680;1288;72388;-81
2023/02/19 03:37:29;;;;;;;;;;;;;;;18.81;37.49;100599.63;105489;1289;75275;-81
2023/02/19 03:39:55;;;;;;;;;;;;;;;18.80;37.45;100603.73;105661;1288;62133;-81
2023/02/19 03:42:27;;;;;;;;;;;;;;;18.80;37.45;100606.43;105791;1282;62417;-81
2023/02/19 03:44:59;;;;;;;;;;;;;;;18.81;37.56;100610.34;106266;1281;73555;-81
2023/02/19 03:47:29;;;;;;;;;;;;;;;18.80;37.58;100613.55;106278;1283;75049;-81
2023/02/19 03:50:01;;;;;;;;;;;;;;;18.80;37.51;100609.66;106191;1283;60789;-81
2023/02/19 03:52:59;;;;;;;;;;;;;;;18.80;37.66;100609.67;106287;1282;61839;-81
2023/02/19 03:55:25;;;;;;;;;;;;;;;18.79;37.61;100606.30;105606;1288;72460;-81
2023/02/19 03:57:52;;;;;;;;;;;;;;;18.79;37.57;100616.48;105586;1289;60879;-81
2023/02/19 04:00:26;;;;;;;;;;;;;;;18.79;37.43;100630.54;105496;1289;62248;-81
2023/02/19 04:02:53;;;;;;;;;;;;;;;18.79;37.59;100639.29;105490;1289;62080;-81
2023/02/19 04:05:20;;;;;;;;;;;;;;;18.79;37.54;100648.77;105618;1290;72735;-81
2023/02/19 04:07:46;;;;;;;;;;;;;;;18.79;37.65;100661.08;105596;1288;76133;-81
2023/02/19 04:10:12;;;;;;;;;;;;;;;18.79;37.63;100664.85;105330;1288;60888;-81
2023/02/19 04:12:39;;;;;;;;;;;;;;;18.78;37.55;100668.59;105541;1288;62230;-81
2023/02/19 04:15:06;;;;;;;;;;;;;;;18.79;37.59;100670.02;105549;1288;61035;-81
2023/02/19 04:17:51;;;;;;;;;;;;;;;18.78;37.49;100667.91;105523;1289;62009;-81
2023/02/19 04:20:17;;;;;;;;;;;;;;;18.78;37.63;100660.25;105618;1288;62117;-81
2023/02/19 04:22:44;;;;;;;;;;;;;;;18.78;37.56;100655.09;105522;1289;62249;-81
2023/02/19 04:25:12;;;;;;;;;;;;;;;18.77;37.67;100653.33;105613;1287;62039;-81
2023/02/19 04:27:38;;;;;;;;;;;;;;;18.78;37.66;100655.98;105504;1288;76195;-81
2023/02/19 04:30:04;;;;;;;;;;;;;;;18.77;37.47;100664.73;105509;1288;62306;-81
2023/02/19 04:32:30;;;;;;;;;;;;;;;18.77;37.59;100671.70;106085;1283;62162;-81
2023/02/19 04:34:55;;;;;;;;;;;;;;;18.76;37.60;100680.81;106181;1288;62098;-81
2023/02/19 04:37:21;;;;;;;;;;;;;;;18.76;37.71;100691.35;106156;1282;62178;-81
2023/02/19 04:39:46;;;;;;;;;;;;;;;18.76;37.56;100696.38;106220;1282;62114;-81
2023/02/19 04:42:12;;;;;;;;;;;;;;;18.76;37.65;100698.69;106174;1286;62001;-81
2023/02/19 04:44:38;;;;;;;;;;;;;;;18.75;37.71;100700.50;106059;1282;62085;-81
2023/02/19 04:47:03;;;;;;;;;;;;;;;18.75;37.61;100695.33;106158;1282;62095;-81
2023/02/19 04:49:29;;;;;;;;;;;;;;;18.75;37.67;100688.39;106164;1283;62079;-81
2023/02/19 04:51:54;;;;;;;;;;;;;;;18.75;37.73;100680.02;106058;1282;61908;-81
2023/02/19 04:54:20;;;;;;;;;;;;;;;18.75;37.62;100673.59;106247;1282;62184;-81
2023/02/19 04:56:45;;;;;;;;;;;;;;;18.75;37.69;100668.96;106186;1283;62256;-81
2023/02/19 04:59:11;;;;;;;;;;;;;;;18.74;37.74;100665.63;106164;1283;62033;-81
2023/02/19 05:01:37;;;;;;;;;;;;;;;18.74;37.79;100667.77;106164;1282;62159;-81
2023/02/19 05:04:03;;;;;;;;;;;;;;;18.74;37.74;100674.57;106212;1283;62039;-81
2023/02/19 05:06:29;;;;;;;;;;;;;;;18.74;37.65;100675.63;106166;1282;62081;-81
2023/02/19 05:08:55;;;;;;;;;;;;;;;18.74;37.72;100687.77;106163;1282;62115;-81
2023/02/19 05:11:22;;;;;;;;;;;;;;;18.73;37.80;100698.67;106268;1282;61915;-81
2023/02/19 05:13:48;;;;;;;;;;;;;;;18.73;37.67;100713.45;106249;1281;62075;-80
2023/02/19 05:16:14;;;;;;;;;;;;;;;18.73;37.78;100721.84;106168;1283;62107;-81
2023/02/19 05:18:41;;;;;;;;;;;;;;;18.73;37.63;100728.28;106176;1282;62075;-81
2023/02/19 05:21:06;;;;;;;;;;;;;;;18.74;37.79;100733.25;106167;1282;60804;-81
2023/02/19 05:23:32;;;;;;;;;;;;;;;18.73;37.75;100729.54;106277;1283;62049;-80
2023/02/19 05:26:03;;;;;;;;;;;;;;;18.73;37.70;100733.10;106260;1281;62298;-80
2023/02/19 05:28:28;;;;;;;;;;;;;;;18.73;37.76;100734.70;106141;1283;61935;-80
2023/02/19 05:30:54;;;;;;;;;;;;;;;18.73;37.80;100736.67;106292;1284;62075;-80
2023/02/19 05:33:20;;;;;;;;;;;;;;;18.73;37.87;100739.32;106180;1282;62103;-81
2023/02/19 05:35:46;;;;;;;;;;;;;;;18.73;37.80;100747.55;106153;1283;62152;-81
2023/02/19 05:38:12;;;;;;;;;;;;;;;18.73;37.77;100753.42;106159;1282;62078;-81
2023/02/19 05:40:38;;;;;;;;;;;;;;;18.73;37.73;100757.35;106191;1282;62085;-81
2023/02/19 05:43:03;;;;;;;;;;;;;;;18.73;37.84;100764.15;106221;1282;62110;-80
2023/02/19 05:45:29;;;;;;;;;;;;;;;18.73;37.80;100774.63;106156;1282;62090;-80
2023/02/19 05:47:54;;;;;;;;;;;;;;;18.73;37.82;100779.63;106256;1282;62149;-80
2023/02/19 05:50:20;;;;;;;;;;;;;;;18.73;37.77;100780.73;106194;1283;60905;-81
2023/02/19 05:52:46;;;;;;;;;;;;;;;18.73;37.79;100785.17;106165;1282;62163;-81
2023/02/19 05:55:11;;;;;;;;;;;;;;;18.73;37.76;100787.83;106221;1288;62230;-81
2023/02/19 05:57:40;;;;;;;;;;;;;;;18.72;37.78;100791.61;106032;1282;72723;-81
2023/02/19 06:00:07;;;;;;;;;;;;;;;18.73;37.84;100791.96;106167;1282;75422;-80
2023/02/19 06:02:32;;;;;;;;;;;;;;;18.72;37.82;100790.17;106175;1283;62051;-80
2023/02/19 06:04:59;;;;;;;;;;;;;;;18.73;37.79;100786.79;106189;1282;62188;-80
2023/02/19 06:07:25;;;;;;;;;;;;;;;18.73;37.89;100786.95;106252;1282;62072;-81
2023/02/19 06:09:50;;;;;;;;;;;;;;;18.73;37.78;100789.80;106158;1282;60108;-81
2023/02/19 06:12:16;;;;;;;;;;;;;;;18.73;37.83;100792.47;106251;1282;62078;-81
2023/02/19 06:14:41;;;;;;;;;;;;;;;18.73;37.83;100801.77;106297;1282;62085;-80
2023/02/19 06:17:07;;;;;;;;;;;;;;;18.73;37.92;100799.98;106044;1282;61060;-80
2023/02/19 06:19:34;;;;;;;;;;;;;;;18.73;37.91;100802.63;106179;1287;62101;-80
2023/02/19 06:22:00;;;;;;;;;;;;;;;18.74;37.95;100805.45;106253;1282;75290;-80
2023/02/19 06:24:25;;;;;;;;;;;;;;;18.73;37.92;100806.73;106255;1282;62120;-80
2023/02/19 06:26:51;;;;;;;;;;;;;;;18.73;37.90;100807.63;106241;1282;62171;-80
2023/02/19 06:29:17;;;;;;;;;;;;;;;18.73;38.01;100813.16;106167;1282;62143;-81
2023/02/19 06:31:43;;;;;;;;;;;;;;;18.73;37.85;100819.03;106301;1282;62169;-81
2023/02/19 06:34:09;;;;;;;;;;;;;;;18.73;37.87;100826.49;106166;1283;75105;-81
2023/02/19 06:36:35;;;;;;;;;;;;;;;18.73;37.99;100833.31;106181;1282;62088;-81
2023/02/19 06:39:00;;;;;;;;;;;;;;;18.73;37.87;100835.07;106218;1281;62152;-81
2023/02/19 06:41:26;;;;;;;;;;;;;;;18.73;37.98;100846.30;106059;1283;62085;-81
2023/02/19 06:43:52;;;;;;;;;;;;;;;18.73;38.00;100849.73;106214;1283;62069;-81
2023/02/19 06:46:17;;;;;;;;;;;;;;;18.73;37.92;100854.67;106264;1282;62062;-81
2023/02/19 06:48:43;;;;;;;;;;;;;;;18.73;37.96;100853.45;106167;1282;62174;-81
2023/02/19 06:51:10;;;;;;;;;;;;;;;18.72;37.93;100853.09;106231;1282;62111;-81
2023/02/19 06:53:36;;;;;;;;;;;;;;;18.73;38.09;100844.52;106162;1283;62107;-81
2023/02/19 06:56:02;;;;;;;;;;;;;;;18.73;38.02;100842.22;106197;1281;62236;-81
2023/02/19 06:58:28;;;;;;;;;;;;;;;18.73;37.95;100846.48;106250;1282;62075;-81
2023/02/19 07:00:53;;;;;;;;;;;;;;;18.73;37.99;100847.55;106229;1281;62055;-81
2023/02/19 07:03:19;;;;;;;;;;;;;;;18.73;38.04;100843.09;105825;1282;681735;-81
2023/02/19 07:05:45;;;;;;;;;;;;;;;18.73;37.94;100848.45;106286;1282;62091;-81
2023/02/19 07:08:10;;;;;;;;;;;;;;;18.73;38.11;100851.10;106236;1286;75496;-81
2023/02/19 07:10:36;;;;;;;;;;;;;;;18.74;37.94;100851.80;106189;1282;62104;-81
2023/02/19 07:13:01;;;;;;;;;;;;;;;18.74;37.84;100855.18;106159;1281;62066;-81
2023/02/19 07:15:28;;;;;;;;;;;;;;;18.74;37.99;100856.41;106161;1281;61982;-81
2023/02/19 07:17:53;;;;;;;;;;;;;;;18.74;37.85;100855.16;106166;1281;62181;-81
2023/02/19 07:20:18;;;;;;;;;;;;;;;18.74;37.94;100852.48;106318;1282;62034;-81
2023/02/19 07:22:44;;;;;;;;;;;;;;;18.74;37.98;100848.41;106173;1282;62096;-81
2023/02/19 07:25:10;;;;;;;;;;;;;;;18.73;38.04;100844.32;106174;1283;62079;-81
2023/02/19 07:27:36;;;;;;;;;;;;;;;18.73;37.93;100838.80;106184;1282;62072;-81
2023/02/19 07:30:03;;;;;;;;;;;;;;;18.73;37.81;100831.14;106173;1282;60899;-81
2023/02/19 07:32:28;;;;;;;;;;;;;;;18.72;37.95;100834.04;106176;1283;62090;-81
2023/02/19 07:34:54;;;;;;;;;;;;;;;18.73;37.84;100839.52;106047;1282;62091;-81
2023/02/19 07:37:19;;;;;;;;;;;;;;;18.73;37.94;100838.66;106210;1282;62256;-81
2023/02/19 07:39:45;;;;;;;;;;;;;;;18.73;37.91;100836.67;106190;1282;72604;-81
2023/02/19 07:42:10;;;;;;;;;;;;;;;18.73;37.83;100843.09;106175;1281;62031;-81
2023/02/19 07:44:36;;;;;;;;;;;;;;;18.73;37.75;100845.78;106171;1282;62203;-81
2023/02/19 07:47:02;;;;;;;;;;;;;;;18.73;37.84;100840.98;106296;1282;62194;-81
2023/02/19 07:49:27;;;;;;;;;;;;;;;18.73;37.84;100839.90;106233;1282;62088;-81
2023/02/19 07:51:53;;;;;;;;;;;;;;;18.73;37.79;100839.90;106277;1282;73407;-81
2023/02/19 07:54:19;;;;;;;;;;;;;;;18.73;37.82;100830.63;106175;1284;60830;-81
2023/02/19 07:56:44;;;;;;;;;;;;;;;18.73;37.91;100829.38;106243;1282;62171;-81
2023/02/19 07:59:10;;;;;;;;;;;;;;;18.73;37.82;100832.94;106192;1282;60815;-80
2023/02/19 08:04:28;;;;;;;;;;;;;;;18.73;37.88;100816.55;106108;1282;75314;-81
2023/02/19 08:06:53;;;;;;;;;;;;;;;18.73;37.74;100813.15;106175;1281;62229;-81
2023/02/19 08:09:19;;;;;;;;;;;;;;;18.73;37.81;100792.62;106192;1282;60914;-81
2023/02/19 08:14:28;;;;;;;;;;;;;;;18.74;37.91;100787.60;106270;1282;75130;-81
2023/02/19 08:16:54;;;;;;;;;;;;;;;18.74;37.78;100792.38;106291;1282;62040;-81
2023/02/19 08:19:19;;;;;;;;;;;;;;;18.74;37.86;100791.52;106164;1282;62185;-81
2023/02/19 08:21:45;;;;;;;;;;;;;;;18.74;37.93;100791.85;106181;1282;62073;-81
2023/02/19 08:24:11;;;;;;;;;;;;;;;18.75;37.88;100801.77;106286;1281;60711;-81
2023/02/19 08:26:37;;;;;;;;;;;;;;;18.75;37.87;100817.11;106310;1282;62062;-81
2023/02/19 08:29:03;;;;;;;;;;;;;;;18.76;37.96;100822.77;106279;1282;61950;-81
2023/02/19 08:31:29;;;;;;;;;;;;;;;18.76;37.99;100825.80;106273;1283;62034;-81
2023/02/19 08:33:54;;;;;;;;;;;;;;;18.76;37.88;100832.21;106203;1282;62159;-81
2023/02/19 08:36:20;;;;;;;;;;;;;;;18.76;37.96;100830.22;106174;1282;62203;-81
2023/02/19 08:38:45;;;;;;;;;;;;;;;18.77;37.86;100827.36;106295;1282;62091;-81
2023/02/19 08:41:11;;;;;;;;;;;;;;;18.76;37.89;100827.91;106210;1282;62088;-81
2023/02/19 08:43:37;;;;;;;;;;;;;;;18.77;37.81;100835.91;106298;1282;61966;-81
2023/02/19 08:46:04;;;;;;;;;;;;;;;18.77;37.84;100834.45;106159;1282;62174;-81
2023/02/19 08:48:30;;;;;;;;;;;;;;;18.77;37.93;100827.16;106246;1281;76475;-81
2023/02/19 08:50:56;;;;;;;;;;;;;;;18.77;37.90;100830.72;106298;1282;62204;-81
2023/02/19 08:53:23;;;;;;;;;;;;;;;18.78;38.01;100834.81;106233;1282;61323;-81
2023/02/19 08:55:48;;;;;;;;;;;;;;;18.78;37.94;100831.95;106188;1282;62049;-81
2023/02/19 08:58:14;;;;;;;;;;;;;;;18.78;37.83;100830.17;106180;1282;62175;-81
2023/02/19 09:00:39;;;;;;;;;;;;;;;18.78;37.95;100824.29;106182;1282;62082;-81
2023/02/19 09:03:05;;;;;;;;;;;;;;;18.78;37.88;100824.45;106211;1282;62098;-81
2023/02/19 09:05:30;;;;;;;;;;;;;;;18.78;37.81;100821.24;106213;1282;62080;-81
2023/02/19 09:07:56;;;;;;;;;;;;;;;18.78;37.99;100822.66;106061;1282;62221;-81
2023/02/19 09:10:21;;;;;;;;;;;;;;;18.79;37.84;100817.28;106155;1282;62110;-81
2023/02/19 09:12:50;;;;;;;;;;;;;;;18.78;37.98;100815.88;106282;1281;61960;-81
2023/02/19 09:15:16;;;;;;;;;;;;;;;18.79;37.84;100817.45;106181;1282;62092;-81
2023/02/19 09:17:42;;;;;;;;;;;;;;;18.79;38.00;100812.63;106200;1282;62050;-81
2023/02/19 09:20:08;;;;;;;;;;;;;;;18.79;38.02;100813.15;106186;1282;62084;-81
2023/02/19 09:22:33;;;;;;;;;;;;;;;18.79;37.90;100811.35;106275;1282;62054;-81
2023/02/19 09:24:59;;;;;;;;;;;;;;;18.79;37.84;100806.17;106278;1282;62066;-81
2023/02/19 09:27:25;;;;;;;;;;;;;;;18.80;37.98;100801.17;106216;1282;62137;-81
2023/02/19 09:29:51;;;;;;;;;;;;;;;18.80;37.90;100800.08;106178;1282;73450;-81
2023/02/19 09:32:16;;;;;;;;;;;;;;;18.80;37.86;100802.02;106278;1283;62034;-81
2023/02/19 09:34:42;;;;;;;;;;;;;;;18.81;37.87;100808.61;106211;1282;62168;-81
2023/02/19 09:37:08;;;;;;;;;;;;;;;18.81;37.86;100810.73;106196;1281;62039;-81
2023/02/19 09:39:34;;;;;;;;;;;;;;;18.81;37.88;100805.34;106235;1282;62175;-81
2023/02/19 09:42:09;;;;;;;;;;;;;;;18.81;38.01;100792.54;106214;1282;62065;-81
2023/02/19 09:44:35;;;;;;;;;;;;;;;18.81;38.05;100791.06;106254;1282;75116;-81
2023/02/19 09:47:02;;;;;;;;;;;;;;;18.81;38.00;100790.55;106258;1281;62044;-81
2023/02/19 09:49:28;;;;;;;;;;;;;;;18.81;37.88;100777.89;105986;1283;62039;-81
2023/02/19 09:52:03;;;;;;;;;;;;;;;18.82;37.90;100767.50;106272;1282;62081;-80
2023/02/19 09:54:29;;;;;;;;;;;;;;;18.82;37.81;100765.36;106245;1282;74036;-80
2023/02/19 09:56:55;;;;;;;;;;;;;;;18.82;38.05;100768.56;106280;1282;62092;-80
2023/02/19 09:59:23;;;;;;;;;;;;;;;18.82;37.89;100773.19;106086;1283;62084;-80
2023/02/19 10:01:51;;;;;;;;;;;;;;;18.83;37.92;100769.78;106171;1282;72348;-80
2023/02/19 10:04:16;;;;;;;;;;;;;;;18.83;37.95;100767.59;106211;1285;76049;-80
2023/02/19 10:06:42;;;;;;;;;;;;;;;18.83;37.95;100756.17;106202;1282;62108;-80
2023/02/19 10:09:12;;;;;;;;;;;;;;;18.84;37.82;100755.96;106204;1282;62120;-80
2023/02/19 10:11:38;;;;;;;;;;;;;;;18.85;37.86;100756.98;106195;1283;74182;-81
2023/02/19 10:14:08;;;;;;;;;;;;;;;18.85;37.89;100754.96;106238;1282;61969;-80
2023/02/19 10:16:33;;;;;;;;;;;;;;;18.86;37.78;100754.92;106274;1282;61974;-80
2023/02/19 10:18:59;;;;;;;;;;;;;;;18.87;37.83;100751.13;106241;1282;62129;-80
2023/02/19 10:21:26;;;;;;;;;;;;;;;18.88;37.80;100757.65;106159;1282;62156;-80
2023/02/19 10:23:52;;;;;;;;;;;;;;;18.89;37.97;100754.08;106170;1282;62126;-80
2023/02/19 10:26:18;;;;;;;;;;;;;;;18.90;37.78;100750.23;106185;1282;62069;-80
2023/02/19 10:28:43;;;;;;;;;;;;;;;18.91;37.75;100745.77;106164;1283;62177;-80
2023/02/19 10:31:17;;;;;;;;;;;;;;;18.91;37.87;100749.47;106154;1283;62184;-80
2023/02/19 10:33:52;;;;;;;;;;;;;;;18.91;37.77;100749.11;106242;1282;75246;-81
2023/02/19 10:36:21;;;;;;;;;;;;;;;18.92;37.77;100743.69;106261;1282;62026;-81
2023/02/19 10:38:47;;;;;;;;;;;;;;;18.92;37.90;100746.02;106284;1282;61973;-81
2023/02/19 10:41:22;;;;;;;;;;;;;;;18.93;37.74;100742.57;106180;1284;62166;-81
2023/02/19 10:43:55;;;;;;;;;;;;;;;18.92;37.73;100741.16;106171;1282;76128;-81
2023/02/19 10:46:21;;;;;;;;;;;;;;;18.93;37.74;100735.24;106294;1285;62152;-81
2023/02/19 10:48:53;;;;;;;;;;;;;;;18.94;37.82;100732.90;106176;1282;62112;-81
2023/02/19 10:51:20;;;;;;;;;;;;;;;18.93;37.70;100724.00;106242;1283;72676;-81
2023/02/19 10:53:50;;;;;;;;;;;;;;;18.94;37.70;100722.01;106188;1283;75144;-81
2023/02/19 10:56:23;;;;;;;;;;;;;;;18.94;37.72;100718.09;106231;1283;61935;-81
2023/02/19 10:58:48;;;;;;;;;;;;;;;18.95;37.72;100706.84;106209;1282;61987;-81
2023/02/19 11:01:21;;;;;;;;;;;;;;;18.94;37.78;100700.08;106278;1282;62039;-81
2023/02/19 11:03:50;;;;;;;;;;;;;;;18.94;37.71;100685.80;106154;1282;75218;-81
2023/02/19 11:06:17;;;;;;;;;;;;;;;18.93;37.69;100678.55;106242;1282;62143;-81
2023/02/19 11:08:59;;;;;;;;;;;;;;;18.93;37.73;100686.73;106205;1282;62175;-81
2023/02/19 11:11:30;;;;;;;;;;;;;;;18.93;37.66;100682.65;106064;1282;72595;-81
2023/02/19 11:13:55;;;;;;;;;;;;;;;18.93;37.67;100680.16;106270;1282;76161;-81
2023/02/19 11:16:22;;;;;;;;;;;;;;;18.93;37.78;100675.70;106298;1282;60857;-81
2023/02/19 11:18:55;;;;;;;;;;;;;;;18.92;37.76;100676.63;106156;1282;62245;-81
2023/02/19 11:21:27;;;;;;;;;;;;;;;18.92;37.66;100669.69;106262;1282;72959;-81
2023/02/19 11:23:53;;;;;;;;;;;;;;;18.92;37.60;100681.46;106181;1283;75070;-81
2023/02/19 11:26:19;;;;;;;;;;;;;;;18.91;37.71;100683.84;106253;1283;62074;-81
2023/02/19 11:28:45;;;;;;;;;;;;;;;18.91;37.68;100686.34;106317;1282;62031;-81
2023/02/19 11:31:12;;;;;;;;;;;;;;;18.91;37.75;100681.00;106136;1286;62167;-81
2023/02/19 11:34:04;;;;;;;;;;;;;;;18.90;37.73;100674.08;106177;1283;62031;-81
2023/02/19 11:36:30;;;;;;;;;;;;;;;18.90;37.75;100673.19;106046;1281;62156;-81
2023/02/19 11:38:56;;;;;;;;;;;;;;;18.90;37.69;100664.14;106311;1281;61965;-81
2023/02/19 11:41:33;;;;;;;;;;;;;;;18.89;37.89;100662.37;106178;1283;62121;-81
2023/02/19 11:44:01;;;;;;;;;;;;;;;18.90;37.74;100655.59;106281;1282;75139;-81
2023/02/19 11:46:37;;;;;;;;;;;;;;;18.89;37.88;100649.20;106165;1282;61971;-82
2023/02/19 11:49:06;;;;;;;;;;;;;;;18.89;37.72;100652.27;106292;1282;61883;-81
2023/02/19 11:51:34;;;;;;;;;;;;;;;18.88;37.83;100643.00;106277;1281;72501;-81
2023/02/19 11:54:18;;;;;;;;;;;;;;;18.88;37.73;100641.93;106288;1282;75427;-81
2023/02/19 11:56:44;;;;;;;;;;;;;;;18.88;37.65;100641.58;106297;1282;62137;-81
2023/02/19 11:59:22;;;;;;;;;;;;;;;18.88;37.74;100632.84;106171;1282;62016;-81
2023/02/19 12:02:04;;;;;;;;;;;;;;;18.88;37.68;100632.11;106199;1282;73376;-81
2023/02/19 12:04:48;;;;;;;;;;;;;;;18.88;37.85;100626.27;106269;1282;76255;-81
2023/02/19 12:07:23;;;;;;;;;;;;;;;18.89;37.70;100622.67;106246;1282;62069;-81
2023/02/19 12:09:49;;;;;;;;;;;;;;;18.88;37.62;100621.24;106289;1282;61923;-81
2023/02/19 12:12:29;;;;;;;;;;;;;;;18.88;37.77;100612.31;106146;1282;62072;-81
2023/02/19 12:15:04;;;;;;;;;;;;;;;18.88;37.68;100605.73;106064;1282;74000;-81
2023/02/19 12:17:30;;;;;;;;;;;;;;;18.89;37.72;100604.65;106291;1282;61943;-81
2023/02/19 12:19:55;;;;;;;;;;;;;;;18.89;37.63;100607.66;106239;1281;62178;-81
2023/02/19 12:22:28;;;;;;;;;;;;;;;18.90;37.50;100605.64;106156;1282;62094;-81
2023/02/19 12:25:08;;;;;;;;;;;;;;;18.90;37.55;100607.77;106165;1282;76245;-81
2023/02/19 12:27:53;;;;;;;;;;;;;;;18.91;37.69;100610.22;106186;1281;61953;-81
2023/02/19 12:30:24;;;;;;;;;;;;;;;18.91;37.80;100608.59;106228;1282;62007;-81
2023/02/19 12:32:50;;;;;;;;;;;;;;;18.92;37.46;100604.61;106274;1285;73805;-81
2023/02/19 12:35:24;;;;;;;;;;;;;;;18.92;37.54;100607.80;106257;1285;62171;-81
2023/02/19 12:38:25;;;;;;;;;;;;;;;18.93;37.59;100604.35;106252;1282;62414;-81
2023/02/19 12:41:00;;;;;;;;;;;;;;;18.94;37.58;100601.80;105502;1288;62084;-81
2023/02/19 12:43:26;;;;;;;;;;;;;;;18.95;37.52;100597.83;105610;1288;72511;-81
2023/02/19 12:45:52;;;;;;;;;;;;;;;18.96;37.56;100594.39;105475;1293;62085;-81
2023/02/19 12:48:20;;;;;;;;;;;;;;;18.97;37.57;100599.14;105616;1288;62269;-81
2023/02/19 12:50:47;;;;;;;;;;;;;;;18.98;37.46;100590.52;105608;1288;60715;-81
2023/02/19 12:53:24;;;;;;;;;;;;;;;18.99;37.56;100595.09;105478;1288;73708;-81
2023/02/19 12:55:49;;;;;;;;;;;;;;;19.00;37.49;100588.60;105613;1288;75431;-81